createdAt,value
2024-04-23T00:00:16.546Z,81.07
2024-04-23T00:01:16.614Z,81.00
2024-04-23T00:02:16.522Z,81.22
2024-04-23T00:03:16.571Z,81.30
2024-04-23T00:04:16.600Z,81.37
2024-04-23T00:05:16.518Z,81.15
2024-04-23T00:06:16.515Z,81.25
2024-04-23T00:07:16.469Z,81.32
2024-04-23T00:08:16.450Z,81.39
2024-04-23T00:09:16.436Z,81.35
2024-04-23T00:10:16.420Z,81.66
2024-04-23T00:11:16.595Z,81.71
2024-04-23T00:12:16.422Z,81.55
2024-04-23T00:13:16.382Z,81.68
2024-04-23T00:14:16.370Z,81.65
2024-04-23T00:15:16.361Z,81.76
2024-04-23T00:16:16.361Z,81.74
2024-04-23T00:17:16.326Z,81.84
2024-04-23T00:18:16.403Z,82.00
2024-04-23T00:19:16.302Z,82.09
2024-04-23T00:20:16.314Z,82.00
2024-04-23T00:21:16.291Z,82.04
2024-04-23T00:22:16.284Z,82.06
2024-04-23T00:23:16.291Z,82.14
2024-04-23T00:24:16.238Z,82.08
2024-04-23T00:25:16.241Z,82.20
2024-04-23T00:26:16.219Z,81.89
2024-04-23T00:27:16.207Z,81.80
2024-04-23T00:28:16.184Z,81.84
2024-04-23T00:29:16.203Z,81.77
2024-04-23T00:30:16.190Z,82.02
2024-04-23T00:31:16.150Z,82.01
2024-04-23T00:32:16.169Z,82.11
2024-04-23T00:33:16.233Z,82.19
2024-04-23T00:34:16.124Z,82.32
2024-04-23T00:35:16.263Z,82.04
2024-04-23T00:36:16.085Z,82.17
2024-04-23T00:37:16.080Z,82.04
2024-04-23T00:38:16.080Z,82.08
2024-04-23T00:39:16.166Z,82.30
2024-04-23T00:40:16.083Z,82.31
2024-04-23T00:41:16.024Z,82.25
2024-04-23T00:42:16.011Z,82.45
2024-04-23T00:43:16.010Z,82.53
2024-04-23T00:44:15.988Z,82.63
2024-04-23T00:45:15.982Z,82.80
2024-04-23T00:46:15.996Z,82.74
2024-04-23T00:47:15.965Z,82.83
2024-04-23T00:48:16.007Z,82.78
2024-04-23T00:49:15.932Z,82.93
2024-04-23T00:50:15.914Z,82.98
2024-04-23T00:51:15.907Z,83.15
2024-04-23T00:52:15.915Z,83.17
2024-04-23T00:53:15.875Z,83.25
2024-04-23T00:54:15.882Z,83.32
2024-04-23T00:55:15.873Z,83.34
2024-04-23T00:56:15.844Z,83.43
2024-04-23T00:57:15.853Z,83.28
2024-04-23T00:58:15.803Z,83.42
2024-04-23T00:59:15.801Z,83.41
2024-04-23T01:00:15.779Z,83.52
2024-04-23T01:01:15.792Z,83.66
2024-04-23T01:02:15.764Z,83.66
2024-04-23T01:03:15.878Z,83.69
2024-04-23T01:04:15.746Z,83.87
2024-04-23T01:05:15.773Z,83.92
2024-04-23T01:06:15.708Z,84.04
2024-04-23T01:07:15.710Z,84.22
2024-04-23T01:08:15.676Z,83.94
2024-04-23T01:09:15.710Z,83.98
2024-04-23T01:10:15.659Z,84.25
2024-04-23T01:11:15.682Z,84.27
2024-04-23T01:12:15.671Z,84.25
2024-04-23T01:13:15.623Z,84.08
2024-04-23T01:14:15.617Z,84.20
2024-04-23T01:15:15.633Z,84.34
2024-04-23T01:16:15.591Z,84.45
2024-04-23T01:17:15.646Z,84.44
2024-04-23T01:18:15.625Z,84.35
2024-04-23T01:19:15.560Z,84.11
2024-04-23T01:20:15.527Z,84.21
2024-04-23T01:21:15.547Z,84.37
2024-04-23T01:22:15.499Z,84.50
2024-04-23T01:23:15.494Z,84.47
2024-04-23T01:24:15.480Z,84.40
2024-04-23T01:25:15.484Z,84.32
2024-04-23T01:26:15.451Z,84.26
2024-04-23T01:27:15.467Z,84.17
2024-04-23T01:28:15.460Z,84.22
2024-04-23T01:29:15.414Z,84.25
2024-04-23T01:30:15.424Z,84.30
2024-04-23T01:31:15.403Z,84.51
2024-04-23T01:32:15.409Z,84.70
2024-04-23T01:33:15.428Z,84.74
2024-04-23T01:34:15.356Z,84.82
2024-04-23T01:35:15.348Z,84.78
2024-04-23T01:36:15.352Z,84.85
2024-04-23T01:37:15.320Z,84.74
2024-04-23T01:38:15.342Z,84.78
2024-04-23T01:39:15.297Z,84.85
2024-04-23T01:40:15.274Z,84.87
2024-04-23T01:41:15.273Z,84.96
2024-04-23T01:42:15.248Z,84.82
2024-04-23T01:43:15.241Z,84.70
2024-04-23T01:44:15.238Z,84.77
2024-04-23T01:45:15.231Z,84.74
2024-04-23T01:46:15.203Z,84.79
2024-04-23T01:47:15.314Z,84.69
2024-04-23T01:48:15.247Z,84.81
2024-04-23T01:49:15.202Z,84.94
2024-04-23T01:50:15.145Z,85.01
2024-04-23T01:51:15.140Z,85.02
2024-04-23T01:52:15.142Z,85.04
2024-04-23T01:53:15.107Z,84.98
2024-04-23T01:54:15.098Z,85.08
2024-04-23T01:55:15.112Z,85.17
2024-04-23T01:56:15.076Z,85.29
2024-04-23T01:57:15.071Z,85.38
2024-04-23T01:58:15.043Z,85.37
2024-04-23T01:59:15.028Z,85.44
2024-04-23T02:00:15.027Z,85.62
2024-04-23T02:01:15.087Z,85.49
2024-04-23T02:02:15.027Z,85.59
2024-04-23T02:03:15.018Z,85.60
2024-04-23T02:04:14.982Z,85.63
2024-04-23T02:05:14.962Z,85.74
2024-04-23T02:06:14.947Z,85.78
2024-04-23T02:07:14.961Z,85.68
2024-04-23T02:08:14.925Z,85.67
2024-04-23T02:09:14.906Z,85.81
2024-04-23T02:10:14.923Z,85.97
2024-04-23T02:11:14.989Z,85.92
2024-04-23T02:12:14.894Z,85.95
2024-04-23T02:13:14.889Z,85.92
2024-04-23T02:14:14.868Z,86.06
2024-04-23T02:15:14.842Z,86.17
2024-04-23T02:16:14.823Z,86.12
2024-04-23T02:17:14.866Z,86.12
2024-04-23T02:18:14.871Z,86.26
2024-04-23T02:19:14.791Z,86.35
2024-04-23T02:20:14.773Z,86.32
2024-04-23T02:21:14.766Z,86.37
2024-04-23T02:22:14.758Z,86.69
2024-04-23T02:23:14.732Z,86.78
2024-04-23T02:24:14.748Z,86.82
2024-04-23T02:25:14.725Z,86.95
2024-04-23T02:26:14.689Z,87.04
2024-04-23T02:27:14.700Z,87.23
2024-04-23T02:28:14.701Z,87.34
2024-04-23T02:29:14.668Z,87.55
2024-04-23T02:30:14.662Z,87.73
2024-04-23T02:31:14.627Z,87.60
2024-04-23T02:32:14.676Z,87.67
2024-04-23T02:33:14.684Z,87.63
2024-04-23T02:34:14.600Z,87.71
2024-04-23T02:35:14.586Z,87.74
2024-04-23T02:36:14.585Z,87.67
2024-04-23T02:37:14.566Z,87.73
2024-04-23T02:38:14.556Z,87.81
2024-04-23T02:39:14.543Z,87.90
2024-04-23T02:40:14.521Z,87.96
2024-04-23T02:41:14.534Z,87.98
2024-04-23T02:42:14.494Z,87.98
2024-04-23T02:43:14.480Z,88.00
2024-04-23T02:44:14.472Z,88.17
2024-04-23T02:45:14.454Z,88.23
2024-04-23T02:46:14.436Z,88.40
2024-04-23T02:47:14.487Z,88.40
2024-04-23T02:48:14.519Z,88.37
2024-04-23T02:49:14.408Z,88.42
2024-04-23T02:50:14.414Z,88.57
2024-04-23T02:51:14.387Z,88.71
2024-04-23T02:52:14.371Z,88.73
2024-04-23T02:53:14.419Z,88.76
2024-04-23T02:54:14.341Z,88.86
2024-04-23T02:55:14.396Z,88.95
2024-04-23T02:56:14.323Z,88.91
2024-04-23T02:57:14.321Z,88.90
2024-04-23T02:58:14.314Z,89.04
2024-04-23T02:59:14.294Z,89.19
2024-04-23T03:00:14.264Z,89.34
2024-04-23T03:01:14.254Z,89.38
2024-04-23T03:02:14.403Z,89.52
2024-04-23T03:03:14.317Z,89.77
2024-04-23T03:04:14.250Z,89.87
2024-04-23T03:05:14.233Z,89.93
2024-04-23T03:06:14.202Z,90.05
2024-04-23T03:07:14.179Z,90.13
2024-04-23T03:08:14.177Z,90.31
2024-04-23T03:09:14.165Z,90.48
2024-04-23T03:10:14.168Z,90.60
2024-04-23T03:11:14.276Z,90.67
2024-04-23T03:12:14.113Z,90.70
2024-04-23T03:13:14.108Z,90.69
2024-04-23T03:14:14.095Z,90.65
2024-04-23T03:15:14.113Z,90.68
2024-04-23T03:16:14.077Z,90.67
2024-04-23T03:17:14.063Z,90.78
2024-04-23T03:18:14.133Z,90.83
2024-04-23T03:19:14.040Z,90.89
2024-04-23T03:20:14.024Z,91.01
2024-04-23T03:21:14.037Z,91.03
2024-04-23T03:22:14.000Z,91.11
2024-04-23T03:23:13.972Z,91.07
2024-04-23T03:24:13.967Z,91.04
2024-04-23T03:25:13.968Z,90.98
2024-04-23T03:26:13.939Z,90.91
2024-04-23T03:27:13.954Z,90.80
2024-04-23T03:28:13.908Z,90.92
2024-04-23T03:29:13.912Z,90.94
2024-04-23T03:30:13.894Z,90.89
2024-04-23T03:31:13.887Z,90.85
2024-04-23T03:32:13.958Z,90.84
2024-04-23T03:33:13.932Z,90.87
2024-04-23T03:34:13.845Z,90.93
2024-04-23T03:35:13.841Z,90.95
2024-04-23T03:36:17.328Z,90.91
2024-04-23T03:37:13.829Z,90.84
2024-04-23T03:38:13.806Z,90.81
2024-04-23T03:39:13.925Z,90.82
2024-04-23T03:40:13.768Z,90.93
2024-04-23T03:41:13.772Z,91.05
2024-04-23T03:42:13.733Z,90.95
2024-04-23T03:43:13.730Z,90.88
2024-04-23T03:44:13.723Z,90.86
2024-04-23T03:45:13.715Z,90.89
2024-04-23T03:46:13.692Z,90.99
2024-04-23T03:47:13.712Z,90.90
2024-04-23T03:48:13.735Z,90.90
2024-04-23T03:49:13.683Z,90.96
2024-04-23T03:50:13.654Z,90.98
2024-04-23T03:51:13.623Z,91.04
2024-04-23T03:52:13.613Z,90.98
2024-04-23T03:53:13.593Z,90.95
2024-04-23T03:54:13.608Z,91.08
2024-04-23T03:55:13.641Z,91.24
2024-04-23T03:56:13.582Z,91.40
2024-04-23T03:57:13.575Z,91.47
2024-04-23T03:58:13.540Z,91.50
2024-04-23T03:59:13.528Z,91.42
2024-04-23T04:00:13.512Z,91.23
2024-04-23T04:01:13.554Z,91.24
2024-04-23T04:02:13.592Z,91.34
2024-04-23T04:03:13.525Z,91.25
2024-04-23T04:04:13.459Z,91.35
2024-04-23T04:05:13.466Z,91.30
2024-04-23T04:06:13.571Z,91.16
2024-04-23T04:07:13.430Z,91.25
2024-04-23T04:08:13.443Z,91.25
2024-04-23T04:09:13.454Z,91.30
2024-04-23T04:10:13.417Z,91.15
2024-04-23T04:11:13.531Z,91.27
2024-04-23T04:12:13.425Z,91.38
2024-04-23T04:13:21.300Z,91.38
2024-04-23T04:14:13.343Z,91.38
2024-04-23T04:15:13.334Z,91.38
2024-04-23T04:16:13.325Z,91.51
2024-04-23T04:17:13.412Z,91.65
2024-04-23T04:18:13.380Z,91.74
2024-04-23T04:19:13.287Z,91.66
2024-04-23T04:20:13.301Z,91.66
2024-04-23T04:21:13.263Z,91.75
2024-04-23T04:22:13.255Z,91.87
2024-04-23T04:23:13.257Z,91.99
2024-04-23T04:24:13.213Z,92.04
2024-04-23T04:25:13.207Z,92.06
2024-04-23T04:26:13.327Z,91.96
2024-04-23T04:27:13.194Z,91.93
2024-04-23T04:28:13.174Z,92.05
2024-04-23T04:29:13.165Z,92.06
2024-04-23T04:30:13.160Z,92.00
2024-04-23T04:31:13.125Z,92.02
2024-04-23T04:32:13.178Z,91.98
2024-04-23T04:33:13.186Z,92.07
2024-04-23T04:34:13.116Z,92.05
2024-04-23T04:35:13.075Z,92.00
2024-04-23T04:36:13.073Z,91.91
2024-04-23T04:37:13.050Z,91.94
2024-04-23T04:38:13.032Z,92.00
2024-04-23T04:39:13.088Z,92.01
2024-04-23T04:40:13.037Z,91.93
2024-04-23T04:41:13.015Z,91.91
2024-04-23T04:42:12.986Z,92.05
2024-04-23T04:43:12.987Z,92.09
2024-04-23T04:44:13.017Z,92.12
2024-04-23T04:45:12.948Z,92.06
2024-04-23T04:46:12.966Z,92.00
2024-04-23T04:47:12.967Z,91.92
2024-04-23T04:48:13.140Z,91.77
2024-04-23T04:49:12.965Z,91.74
2024-04-23T04:50:12.909Z,91.78
2024-04-23T04:51:12.919Z,91.70
2024-04-23T04:52:12.881Z,91.86
2024-04-23T04:53:12.863Z,92.04
2024-04-23T04:54:12.873Z,92.06
2024-04-23T04:55:12.826Z,91.93
2024-04-23T04:56:12.804Z,91.88
2024-04-23T04:57:12.819Z,91.94
2024-04-23T04:58:12.815Z,91.89
2024-04-23T04:59:12.768Z,92.00
2024-04-23T05:00:12.755Z,92.12
2024-04-23T05:01:12.777Z,91.99
2024-04-23T05:02:12.866Z,91.95
2024-04-23T05:03:12.728Z,91.96
2024-04-23T05:04:12.745Z,92.07
2024-04-23T05:05:12.692Z,92.11
2024-04-23T05:06:12.726Z,92.21
2024-04-23T05:07:12.683Z,92.15
2024-04-23T05:08:12.732Z,92.04
2024-04-23T05:09:12.644Z,92.06
2024-04-23T05:10:12.624Z,92.12
2024-04-23T05:11:12.615Z,92.12
2024-04-23T05:12:14.308Z,92.13
2024-04-23T05:13:12.603Z,92.28
2024-04-23T05:14:12.606Z,92.13
2024-04-23T05:15:12.567Z,92.14
2024-04-23T05:16:12.583Z,92.14
2024-04-23T05:17:12.614Z,92.23
2024-04-23T05:18:12.640Z,92.24
2024-04-23T05:19:12.523Z,92.37
2024-04-23T05:20:12.539Z,92.53
2024-04-23T05:21:12.505Z,92.65
2024-04-23T05:22:12.509Z,92.59
2024-04-23T05:23:12.494Z,92.64
2024-04-23T05:24:12.459Z,92.63
2024-04-23T05:25:12.489Z,92.84
2024-04-23T05:26:12.440Z,93.00
2024-04-23T05:27:12.414Z,93.05
2024-04-23T05:28:12.443Z,93.30
2024-04-23T05:29:12.412Z,93.37
2024-04-23T05:30:12.395Z,93.44
2024-04-23T05:31:12.407Z,93.59
2024-04-23T05:32:12.498Z,93.65
2024-04-23T05:33:12.402Z,93.64
2024-04-23T05:34:12.356Z,93.64
2024-04-23T05:35:12.373Z,93.87
2024-04-23T05:36:12.326Z,94.16
2024-04-23T05:37:12.327Z,94.40
2024-04-23T05:38:13.937Z,94.45
2024-04-23T05:39:12.273Z,94.51
2024-04-23T05:40:12.263Z,94.61
2024-04-23T05:41:12.263Z,94.85
2024-04-23T05:42:12.233Z,95.10
2024-04-23T05:43:12.261Z,95.18
2024-04-23T05:44:12.242Z,95.13
2024-04-23T05:45:12.232Z,95.16
2024-04-23T05:46:12.178Z,95.20
2024-04-23T05:47:12.369Z,95.26
2024-04-23T05:48:12.238Z,95.36
2024-04-23T05:49:12.154Z,95.40
2024-04-23T05:50:12.177Z,95.33
2024-04-23T05:51:12.112Z,95.36
2024-04-23T05:52:19.808Z,95.22
2024-04-23T05:53:12.122Z,95.15
2024-04-23T05:54:12.090Z,95.12
2024-04-23T05:55:12.069Z,95.07
2024-04-23T05:56:12.113Z,94.97
2024-04-23T05:57:12.066Z,94.77
2024-04-23T05:58:12.033Z,94.63
2024-04-23T05:59:12.081Z,94.49
2024-04-23T06:00:12.002Z,94.42
2024-04-23T06:01:12.033Z,94.24
2024-04-23T06:02:11.992Z,94.29
2024-04-23T06:03:11.980Z,94.29
2024-04-23T06:04:12.010Z,94.26
2024-04-23T06:05:11.985Z,94.26
2024-04-23T06:06:11.946Z,94.27
2024-04-23T06:07:11.919Z,94.10
2024-04-23T06:08:12.016Z,94.05
2024-04-23T06:09:11.891Z,94.16
2024-04-23T06:10:11.907Z,94.28
2024-04-23T06:11:12.119Z,94.26
2024-04-23T06:12:11.847Z,94.23
2024-04-23T06:13:11.843Z,94.37
2024-04-23T06:14:11.852Z,94.50
2024-04-23T06:15:11.843Z,94.63
2024-04-23T06:16:11.825Z,94.63
2024-04-23T06:17:11.797Z,94.56
2024-04-23T06:18:11.828Z,94.70
2024-04-23T06:19:11.785Z,94.85
2024-04-23T06:20:11.764Z,94.98
2024-04-23T06:21:11.796Z,94.93
2024-04-23T06:22:11.817Z,94.91
2024-04-23T06:23:11.807Z,94.86
2024-04-23T06:24:11.708Z,94.80
2024-04-23T06:25:11.754Z,94.71
2024-04-23T06:26:11.708Z,94.70
2024-04-23T06:27:11.687Z,94.81
2024-04-23T06:28:11.660Z,94.85
2024-04-23T06:29:11.654Z,94.61
2024-04-23T06:30:11.638Z,94.62
2024-04-23T06:31:11.626Z,94.65
2024-04-23T06:32:11.639Z,94.50
2024-04-23T06:33:11.736Z,94.61
2024-04-23T06:34:11.575Z,94.45
2024-04-23T06:35:11.604Z,94.43
2024-04-23T06:36:11.554Z,94.42
2024-04-23T06:37:11.533Z,94.43
2024-04-23T06:38:11.600Z,94.63
2024-04-23T06:39:11.513Z,94.77
2024-04-23T06:40:11.505Z,94.92
2024-04-23T06:41:11.494Z,94.96
2024-04-23T06:42:11.471Z,94.96
2024-04-23T06:43:14.193Z,94.90
2024-04-23T06:44:11.490Z,94.80
2024-04-23T06:45:11.421Z,94.71
2024-04-23T06:46:11.432Z,94.74
2024-04-23T06:47:11.420Z,94.64
2024-04-23T06:48:11.459Z,94.66
2024-04-23T06:49:11.390Z,94.79
2024-04-23T06:50:11.437Z,94.78
2024-04-23T06:51:11.376Z,94.55
2024-04-23T06:52:11.351Z,94.52
2024-04-23T06:53:11.380Z,94.49
2024-04-23T06:54:11.354Z,94.37
2024-04-23T06:55:11.364Z,94.28
2024-04-23T06:56:11.362Z,94.22
2024-04-23T06:57:11.309Z,94.00
2024-04-23T06:58:11.274Z,93.66
2024-04-23T06:59:11.274Z,93.51
2024-04-23T07:00:11.250Z,93.41
2024-04-23T07:01:11.304Z,93.39
2024-04-23T07:02:11.282Z,93.21
2024-04-23T07:03:11.198Z,93.29
2024-04-23T07:04:11.196Z,93.27
2024-04-23T07:05:11.335Z,92.96
2024-04-23T07:06:11.166Z,92.75
2024-04-23T07:07:11.185Z,92.71
2024-04-23T07:08:11.148Z,92.91
2024-04-23T07:09:11.144Z,92.86
2024-04-23T07:10:11.129Z,92.62
2024-04-23T07:11:11.242Z,92.73
2024-04-23T07:12:11.129Z,92.78
2024-04-23T07:13:11.066Z,92.60
2024-04-23T07:14:11.111Z,92.42
2024-04-23T07:15:11.058Z,92.09
2024-04-23T07:16:11.058Z,92.33
2024-04-23T07:17:11.147Z,92.14
2024-04-23T07:18:11.127Z,91.89
2024-04-23T07:19:11.055Z,91.58
2024-04-23T07:20:11.022Z,91.33
2024-04-23T07:21:11.029Z,91.18
2024-04-23T07:22:10.971Z,90.74
2024-04-23T07:23:11.045Z,90.76
2024-04-23T07:24:10.993Z,90.93
2024-04-23T07:25:10.928Z,90.80
2024-04-23T07:26:10.960Z,91.00
2024-04-23T07:27:10.915Z,91.23
2024-04-23T07:28:10.900Z,91.25
2024-04-23T07:29:10.947Z,90.97
2024-04-23T07:30:10.913Z,90.62
2024-04-23T07:31:10.840Z,90.08
2024-04-23T07:32:11.064Z,89.87
2024-04-23T07:33:10.920Z,89.79
2024-04-23T07:34:10.810Z,89.78
2024-04-23T07:35:10.883Z,89.43
2024-04-23T07:36:10.837Z,89.57
2024-04-23T07:37:10.798Z,89.32
2024-04-23T07:38:10.894Z,89.29
2024-04-23T07:39:10.746Z,89.34
2024-04-23T07:40:10.727Z,89.23
2024-04-23T07:41:10.758Z,89.18
2024-04-23T07:42:10.759Z,89.19
2024-04-23T07:43:10.766Z,89.02
2024-04-23T07:44:10.819Z,88.81
2024-04-23T07:45:10.658Z,88.59
2024-04-23T07:46:10.653Z,88.42
2024-04-23T07:47:10.766Z,88.66
2024-04-23T07:48:10.750Z,89.03
2024-04-23T07:49:10.610Z,89.32
2024-04-23T07:50:10.696Z,88.94
2024-04-23T07:51:10.614Z,88.92
2024-04-23T07:52:10.583Z,88.80
2024-04-23T07:53:10.619Z,88.35
2024-04-23T07:54:10.548Z,88.27
2024-04-23T07:55:10.536Z,88.44
2024-04-23T07:56:10.606Z,88.83
2024-04-23T07:57:10.510Z,88.85
2024-04-23T07:58:10.514Z,89.02
2024-04-23T07:59:10.567Z,88.49
2024-04-23T08:00:10.458Z,88.50
2024-04-23T08:01:10.487Z,89.08
2024-04-23T08:02:10.529Z,88.96
2024-04-23T08:03:11.528Z,88.92
2024-04-23T08:04:10.529Z,88.31
2024-04-23T08:05:10.452Z,87.91
2024-04-23T08:06:10.394Z,87.64
2024-04-23T08:07:10.381Z,87.59
2024-04-23T08:08:10.389Z,87.26
2024-04-23T08:09:10.345Z,87.40
2024-04-23T08:10:10.383Z,87.71
2024-04-23T08:11:10.557Z,87.27
2024-04-23T08:12:10.473Z,87.12
2024-04-23T08:13:10.322Z,86.78
2024-04-23T08:14:10.338Z,86.99
2024-04-23T08:15:10.281Z,86.37
2024-04-23T08:16:10.285Z,85.71
2024-04-23T08:17:10.425Z,86.33
2024-04-23T08:18:10.418Z,86.13
2024-04-23T08:19:10.252Z,85.62
2024-04-23T08:20:10.214Z,84.86
2024-04-23T08:21:10.235Z,84.62
2024-04-23T08:22:10.185Z,84.13
2024-04-23T08:23:10.374Z,84.03
2024-04-23T08:24:10.153Z,84.66
2024-04-23T08:25:10.152Z,85.23
2024-04-23T08:26:10.381Z,84.61
2024-04-23T08:27:10.160Z,84.56
2024-04-23T08:28:10.102Z,85.06
2024-04-23T08:29:10.185Z,85.22
2024-04-23T08:30:10.084Z,84.87
2024-04-23T08:31:10.098Z,84.69
2024-04-23T08:32:10.068Z,84.57
2024-04-23T08:33:10.089Z,85.04
2024-04-23T08:34:10.044Z,84.16
2024-04-23T08:35:10.065Z,84.34
2024-04-23T08:36:10.002Z,84.44
2024-04-23T08:37:09.989Z,83.81
2024-04-23T08:38:10.025Z,83.81
2024-04-23T08:39:09.966Z,84.16
2024-04-23T08:40:09.958Z,84.26
2024-04-23T08:41:09.972Z,84.65
2024-04-23T08:42:09.931Z,84.03
2024-04-23T08:43:09.910Z,83.70
2024-04-23T08:44:10.005Z,83.30
2024-04-23T08:45:09.906Z,83.30
2024-04-23T08:46:09.891Z,83.45
2024-04-23T08:47:09.932Z,83.16
2024-04-23T08:48:09.949Z,82.64
2024-04-23T08:49:09.834Z,81.95
2024-04-23T08:50:09.870Z,82.55
2024-04-23T08:51:09.809Z,82.11
2024-04-23T08:52:09.794Z,82.16
2024-04-23T08:53:09.908Z,82.67
2024-04-23T08:54:09.787Z,82.56
2024-04-23T08:55:09.767Z,82.67
2024-04-23T08:56:09.803Z,82.43
2024-04-23T08:57:09.754Z,81.75
2024-04-23T08:58:09.736Z,82.06
2024-04-23T08:59:09.760Z,81.87
2024-04-23T09:00:09.693Z,82.74
2024-04-23T09:01:09.746Z,82.36
2024-04-23T09:02:09.729Z,82.42
2024-04-23T09:03:09.680Z,82.97
2024-04-23T09:04:09.765Z,84.07
2024-04-23T09:05:09.645Z,84.18
2024-04-23T09:06:09.616Z,84.08
2024-04-23T09:07:15.004Z,83.81
2024-04-23T09:08:09.726Z,83.50
2024-04-23T09:09:09.576Z,83.58
2024-04-23T09:10:09.612Z,83.87
2024-04-23T09:11:09.584Z,83.93
2024-04-23T09:12:09.560Z,83.53
2024-04-23T09:13:09.564Z,83.35
2024-04-23T09:14:09.589Z,83.72
2024-04-23T09:15:09.516Z,83.50
2024-04-23T09:16:09.501Z,83.48
2024-04-23T09:17:09.561Z,83.11
2024-04-23T09:18:09.598Z,83.21
2024-04-23T09:19:09.452Z,83.24
2024-04-23T09:20:09.488Z,83.16
2024-04-23T09:21:09.436Z,82.93
2024-04-23T09:22:09.812Z,82.89
2024-04-23T09:23:09.427Z,82.86
2024-04-23T09:24:09.471Z,82.93
2024-04-23T09:25:09.447Z,82.98
2024-04-23T09:26:09.717Z,82.97
2024-04-23T09:27:10.107Z,82.41
2024-04-23T09:28:09.378Z,82.06
2024-04-23T09:29:09.428Z,81.50
2024-04-23T09:30:09.401Z,81.47
2024-04-23T09:31:09.286Z,81.49
2024-04-23T09:32:09.529Z,80.87
2024-04-23T09:33:09.436Z,80.90
2024-04-23T09:34:09.272Z,80.55
2024-04-23T09:35:09.308Z,81.01
2024-04-23T09:36:09.309Z,80.32
2024-04-23T09:37:09.557Z,79.82
2024-04-23T09:38:09.638Z,79.81
2024-04-23T09:39:09.185Z,79.83
2024-04-23T09:40:09.172Z,79.12
2024-04-23T09:41:09.295Z,79.15
2024-04-23T09:42:09.196Z,78.43
2024-04-23T09:43:09.144Z,78.23
2024-04-23T09:44:09.199Z,78.12
2024-04-23T09:45:09.107Z,78.42
2024-04-23T09:46:10.964Z,78.43
2024-04-23T09:47:09.231Z,78.50
2024-04-23T09:48:09.295Z,79.02
2024-04-23T09:49:09.051Z,78.19
2024-04-23T09:50:09.139Z,77.78
2024-04-23T09:51:09.036Z,76.33
2024-04-23T09:52:09.029Z,76.33
2024-04-23T09:53:09.194Z,75.64
2024-04-23T09:54:09.012Z,75.37
2024-04-23T09:55:09.002Z,74.39
2024-04-23T09:56:09.052Z,75.27
2024-04-23T09:57:08.946Z,76.11
2024-04-23T09:58:08.962Z,76.11
2024-04-23T09:59:08.965Z,76.65
2024-04-23T10:00:08.917Z,77.01
2024-04-23T10:01:08.970Z,77.55
2024-04-23T10:02:08.912Z,77.20
2024-04-23T10:03:10.013Z,77.95
2024-04-23T10:04:08.982Z,77.91
2024-04-23T10:05:09.410Z,77.79
2024-04-23T10:06:08.844Z,78.23
2024-04-23T10:07:08.840Z,77.51
2024-04-23T10:08:08.874Z,77.45
2024-04-23T10:09:08.796Z,77.44
2024-04-23T10:10:08.842Z,77.98
2024-04-23T10:11:08.807Z,78.71
2024-04-23T10:12:08.762Z,79.12
2024-04-23T10:13:08.752Z,79.39
2024-04-23T10:14:08.797Z,79.80
2024-04-23T10:15:08.735Z,79.46
2024-04-23T10:16:08.712Z,79.52
2024-04-23T10:17:08.811Z,79.39
2024-04-23T10:18:08.792Z,80.35
2024-04-23T10:19:08.674Z,79.91
2024-04-23T10:20:09.018Z,79.16
2024-04-23T10:21:08.649Z,78.53
2024-04-23T10:22:08.643Z,78.94
2024-04-23T10:23:08.694Z,79.70
2024-04-23T10:24:08.614Z,79.78
2024-04-23T10:25:08.601Z,79.88
2024-04-23T10:26:08.636Z,79.86
2024-04-23T10:27:08.587Z,79.40
2024-04-23T10:28:08.571Z,78.45
2024-04-23T10:29:08.601Z,77.99
2024-04-23T10:30:08.544Z,78.19
2024-04-23T10:31:08.509Z,78.16
2024-04-23T10:32:08.617Z,77.54
2024-04-23T10:33:08.554Z,76.45
2024-04-23T10:34:08.476Z,76.37
2024-04-23T10:35:08.472Z,76.68
2024-04-23T10:36:08.462Z,76.62
2024-04-23T10:37:08.431Z,77.06
2024-04-23T10:38:08.564Z,76.72
2024-04-23T10:39:08.411Z,77.06
2024-04-23T10:40:08.450Z,77.29
2024-04-23T10:41:08.488Z,77.22
2024-04-23T10:42:08.368Z,76.77
2024-04-23T10:43:08.376Z,76.68
2024-04-23T10:44:08.400Z,75.80
2024-04-23T10:45:08.393Z,74.28
2024-04-23T10:46:08.316Z,75.29
2024-04-23T10:47:08.385Z,75.31
2024-04-23T10:48:08.332Z,74.58
2024-04-23T10:49:08.311Z,74.56
2024-04-23T10:50:08.354Z,74.52
2024-04-23T10:51:08.266Z,74.86
2024-04-23T10:52:08.237Z,74.91
2024-04-23T10:53:08.361Z,75.58
2024-04-23T10:54:11.451Z,75.52
2024-04-23T10:55:08.227Z,75.30
2024-04-23T10:56:08.209Z,75.38
2024-04-23T10:57:08.173Z,76.35
2024-04-23T10:58:08.164Z,75.99
2024-04-23T10:59:08.204Z,76.02
2024-04-23T11:00:08.153Z,76.17
2024-04-23T11:01:08.282Z,76.16
2024-04-23T11:02:08.255Z,75.68
2024-04-23T11:03:08.233Z,75.70
2024-04-23T11:04:08.101Z,75.38
2024-04-23T11:05:08.240Z,75.14
2024-04-23T11:06:11.330Z,75.11
2024-04-23T11:07:08.069Z,75.70
2024-04-23T11:08:08.093Z,76.34
2024-04-23T11:09:08.012Z,74.84
2024-04-23T11:10:08.025Z,75.09
2024-04-23T11:11:08.116Z,74.56
2024-04-23T11:12:10.566Z,73.74
2024-04-23T11:13:07.964Z,73.27
2024-04-23T11:14:08.082Z,73.64
2024-04-23T11:15:07.953Z,73.04
2024-04-23T11:16:07.942Z,73.34
2024-04-23T11:17:08.017Z,73.46
2024-04-23T11:18:11.173Z,73.44
2024-04-23T11:19:08.013Z,74.60
2024-04-23T11:20:07.984Z,74.33
2024-04-23T11:21:07.873Z,74.87
2024-04-23T11:22:07.859Z,74.79
2024-04-23T11:23:07.885Z,75.64
2024-04-23T11:24:10.026Z,75.33
2024-04-23T11:25:07.813Z,75.45
2024-04-23T11:26:07.998Z,74.91
2024-04-23T11:27:07.825Z,75.20
2024-04-23T11:28:07.933Z,75.13
2024-04-23T11:29:07.889Z,75.01
2024-04-23T11:30:10.421Z,74.45
2024-04-23T11:31:07.728Z,73.10
2024-04-23T11:32:07.780Z,72.90
2024-04-23T11:33:07.876Z,73.79
2024-04-23T11:34:07.696Z,74.65
2024-04-23T11:35:08.068Z,74.42
2024-04-23T11:36:10.513Z,74.86
2024-04-23T11:37:07.655Z,74.48
2024-04-23T11:38:07.690Z,74.61
2024-04-23T11:39:07.674Z,74.62
2024-04-23T11:40:07.616Z,75.10
2024-04-23T11:41:07.632Z,75.91
2024-04-23T11:42:09.050Z,75.89
2024-04-23T11:43:07.811Z,75.85
2024-04-23T11:44:07.797Z,75.72
2024-04-23T11:45:07.560Z,75.80
2024-04-23T11:46:07.532Z,76.42
2024-04-23T11:47:07.582Z,75.67
2024-04-23T11:48:07.676Z,76.32
2024-04-23T11:49:07.540Z,76.51
2024-04-23T11:50:08.132Z,76.97
2024-04-23T11:51:07.460Z,76.80
2024-04-23T11:52:08.621Z,76.65
2024-04-23T11:53:07.527Z,76.99
2024-04-23T11:54:07.466Z,77.07
2024-04-23T11:55:07.482Z,76.86
2024-04-23T11:56:07.509Z,77.19
2024-04-23T11:57:07.389Z,77.47
2024-04-23T11:58:07.400Z,77.28
2024-04-23T11:59:07.397Z,77.54
2024-04-23T12:00:07.347Z,77.53
2024-04-23T12:01:07.450Z,77.53
2024-04-23T12:02:07.402Z,77.79
2024-04-23T12:03:07.300Z,78.05
2024-04-23T12:04:07.334Z,78.23
2024-04-23T12:05:07.445Z,77.88
2024-04-23T12:06:07.561Z,78.33
2024-04-23T12:07:07.285Z,78.21
2024-04-23T12:08:07.451Z,78.17
2024-04-23T12:09:07.239Z,78.25
2024-04-23T12:10:07.229Z,77.60
2024-04-23T12:11:07.337Z,77.39
2024-04-23T12:12:07.201Z,77.70
2024-04-23T12:13:07.229Z,78.02
2024-04-23T12:14:07.276Z,77.86
2024-04-23T12:15:07.436Z,77.91
2024-04-23T12:16:07.145Z,77.89
2024-04-23T12:17:07.203Z,77.93
2024-04-23T12:18:07.235Z,77.26
2024-04-23T12:19:07.123Z,76.95
2024-04-23T12:20:07.185Z,77.25
2024-04-23T12:21:07.075Z,77.54
2024-04-23T12:22:07.100Z,77.82
2024-04-23T12:23:07.182Z,77.53
2024-04-23T12:24:07.065Z,78.00
2024-04-23T12:25:07.045Z,78.03
2024-04-23T12:26:07.050Z,77.57
2024-04-23T12:27:07.000Z,77.76
2024-04-23T12:28:07.002Z,77.65
2024-04-23T12:29:07.022Z,78.08
2024-04-23T12:30:06.978Z,77.97
2024-04-23T12:31:06.935Z,78.13
2024-04-23T12:32:07.083Z,78.56
2024-04-23T12:33:06.989Z,79.00
2024-04-23T12:34:06.920Z,78.87
2024-04-23T12:35:06.952Z,78.69
2024-04-23T12:36:06.894Z,78.75
2024-04-23T12:37:06.877Z,79.14
2024-04-23T12:38:06.878Z,79.40
2024-04-23T12:39:06.866Z,79.49
2024-04-23T12:40:06.824Z,79.56
2024-04-23T12:41:06.941Z,79.83
2024-04-23T12:42:06.806Z,79.85
2024-04-23T12:43:06.840Z,80.18
2024-04-23T12:44:06.850Z,80.23
2024-04-23T12:45:06.779Z,80.50
2024-04-23T12:46:06.749Z,80.33
2024-04-23T12:47:06.856Z,80.58
2024-04-23T12:48:06.935Z,80.82
2024-04-23T12:49:06.804Z,80.88
2024-04-23T12:50:06.773Z,80.94
2024-04-23T12:51:06.688Z,81.30
2024-04-23T12:52:06.840Z,81.49